Time;durP1;ratioP1;P1;durP2;ratioP2;P2;SDS_P1;SDS_P2;PMS_P1;PMS_P2;Temp;Humidity;BMP_temperature;BMP_pressure;BME280_temperature;BME280_humidity;BME280_pressure;Samples;Min_cycle;Max_cycle;Signal;HPM_P1;HPM_P2
2022/03/26 00:01:24;;;;;;;146.88;78.82;;;;;;;;;;5103860;27;20043;-71
2022/03/26 00:06:27;;;;;;;144.70;77.68;;;;;;;;;;5429627;22;20058;-73
2022/03/26 00:08:54;;;;;;;136.60;73.18;;;;;;;;;;4980188;28;20055;-74
2022/03/26 00:11:22;;;;;;;132.43;70.65;;;;;;;;;;4982533;28;20054;-74
2022/03/26 00:13:49;;;;;;;118.75;66.18;;;;;;;;;;4987560;28;20145;-74
2022/03/26 00:16:16;;;;;;;130.43;71.22;;;;;;;;;;4982959;28;20059;-74
2022/03/26 00:18:45;;;;;;;130.40;71.07;;;;;;;;;;4982503;28;20115;-74
2022/03/26 00:21:12;;;;;;;139.07;78.10;;;;;;;;;;4985107;28;20097;-74
2022/03/26 00:23:39;;;;;;;143.13;78.47;;;;;;;;;;4985078;28;20050;-74
2022/03/26 00:26:07;;;;;;;169.55;89.25;;;;;;;;;;4979811;28;20109;-74
2022/03/26 00:28:37;;;;;;;143.50;75.78;;;;;;;;;;4984440;28;20062;-74
2022/03/26 00:31:05;;;;;;;114.18;65.07;;;;;;;;;;4984636;28;20193;-75
2022/03/26 00:33:32;;;;;;;140.15;77.35;;;;;;;;;;4985383;28;20100;-75
2022/03/26 00:36:01;;;;;;;143.88;78.47;;;;;;;;;;4979840;28;20058;-74
2022/03/26 00:38:28;;;;;;;141.52;76.63;;;;;;;;;;4984028;28;20137;-74
2022/03/26 00:40:55;;;;;;;135.40;75.03;;;;;;;;;;4977577;28;20039;-74
2022/03/26 00:43:22;;;;;;;137.10;74.18;;;;;;;;;;4982958;28;20058;-74
2022/03/26 00:45:50;;;;;;;126.95;70.35;;;;;;;;;;4986406;28;20050;-74
2022/03/26 00:48:17;;;;;;;125.65;68.68;;;;;;;;;;4987439;28;20050;-74
2022/03/26 00:50:44;;;;;;;118.05;66.28;;;;;;;;;;4989347;28;20046;-74
2022/03/26 00:53:13;;;;;;;112.35;64.40;;;;;;;;;;4995498;28;20696;-74
2022/03/26 00:55:40;;;;;;;115.25;65.05;;;;;;;;;;4993154;28;20105;-74
2022/03/26 00:58:07;;;;;;;118.72;64.97;;;;;;;;;;4996080;28;20208;-74
2022/03/26 01:00:34;;;;;;;112.47;63.75;;;;;;;;;;4994295;28;20050;-74
2022/03/26 01:03:02;;;;;;;116.63;62.38;;;;;;;;;;4994786;28;20069;-74
2022/03/26 01:05:30;;;;;;;124.93;68.93;;;;;;;;;;4983434;28;20059;-74
2022/03/26 01:07:57;;;;;;;123.55;68.63;;;;;;;;;;5004541;28;20420;-74
2022/03/26 01:10:26;;;;;;;127.78;71.55;;;;;;;;;;4994980;28;20506;-74
2022/03/26 01:12:54;;;;;;;126.43;67.40;;;;;;;;;;4991166;28;20132;-74
2022/03/26 01:15:22;;;;;;;120.28;66.75;;;;;;;;;;4993558;28;20054;-74
2022/03/26 01:17:50;;;;;;;129.77;68.82;;;;;;;;;;4991135;28;20081;-74
2022/03/26 01:20:17;;;;;;;131.52;71.25;;;;;;;;;;4992926;28;20058;-74
2022/03/26 01:22:45;;;;;;;132.50;72.30;;;;;;;;;;4988245;28;20109;-74
2022/03/26 01:25:12;;;;;;;139.63;73.57;;;;;;;;;;4990282;28;20058;-74
2022/03/26 01:27:40;;;;;;;138.30;74.57;;;;;;;;;;4990277;28;20095;-74
2022/03/26 01:30:08;;;;;;;148.02;76.55;;;;;;;;;;4989308;28;20058;-74
2022/03/26 01:32:36;;;;;;;150.30;78.10;;;;;;;;;;4986061;28;20715;-74
2022/03/26 01:35:06;;;;;;;144.30;79.25;;;;;;;;;;4988457;28;20583;-74
2022/03/26 01:37:33;;;;;;;146.50;75.57;;;;;;;;;;4990598;28;20050;-74
2022/03/26 01:40:00;;;;;;;149.02;77.32;;;;;;;;;;4988067;28;20050;-74
2022/03/26 01:42:27;;;;;;;146.32;75.80;;;;;;;;;;4989979;28;20051;-74
2022/03/26 01:44:56;;;;;;;139.57;73.85;;;;;;;;;;4990450;28;20635;-74
2022/03/26 01:47:23;;;;;;;143.68;75.95;;;;;;;;;;4989903;28;20211;-74
2022/03/26 01:49:51;;;;;;;140.25;75.60;;;;;;;;;;4989301;28;20050;-74
2022/03/26 01:52:19;;;;;;;141.40;75.18;;;;;;;;;;4985369;28;20046;-74
2022/03/26 01:54:46;;;;;;;138.00;74.35;;;;;;;;;;4990824;28;20050;-74
2022/03/26 01:57:13;;;;;;;142.65;76.18;;;;;;;;;;4987830;28;20062;-74
2022/03/26 01:59:41;;;;;;;158.85;81.50;;;;;;;;;;4990707;28;20404;-74
2022/03/26 02:02:10;;;;;;;133.02;71.82;;;;;;;;;;4989077;28;20050;-72
2022/03/26 02:04:37;;;;;;;131.02;71.80;;;;;;;;;;4989144;28;20087;-71
2022/03/26 02:07:05;;;;;;;137.38;73.05;;;;;;;;;;4988351;28;20129;-71
2022/03/26 02:09:35;;;;;;;127.05;69.50;;;;;;;;;;4986585;28;20054;-71
2022/03/26 02:12:02;;;;;;;128.75;68.97;;;;;;;;;;4989393;28;20082;-71
2022/03/26 02:14:29;;;;;;;124.18;66.47;;;;;;;;;;4989516;28;20050;-71
2022/03/26 02:16:57;;;;;;;118.90;64.32;;;;;;;;;;4987822;28;20133;-71
2022/03/26 02:19:25;;;;;;;106.25;59.40;;;;;;;;;;4991151;28;20054;-71
2022/03/26 02:21:54;;;;;;;110.57;59.38;;;;;;;;;;4989607;28;20050;-71
2022/03/26 02:24:21;;;;;;;96.45;54.95;;;;;;;;;;4987314;28;20050;-71
2022/03/26 02:26:48;;;;;;;89.20;51.17;;;;;;;;;;4986372;28;20070;-71
2022/03/26 02:29:16;;;;;;;81.50;48.13;;;;;;;;;;4990215;28;20053;-71
2022/03/26 02:31:43;;;;;;;81.07;48.10;;;;;;;;;;4986337;28;20046;-71
2022/03/26 02:34:10;;;;;;;89.57;51.03;;;;;;;;;;4985238;28;20496;-71
2022/03/26 02:36:37;;;;;;;87.15;48.60;;;;;;;;;;4987550;28;20046;-71
2022/03/26 02:39:06;;;;;;;91.38;51.75;;;;;;;;;;4987307;28;20050;-71
2022/03/26 02:41:34;;;;;;;83.80;48.17;;;;;;;;;;4987518;28;20049;-71
2022/03/26 02:44:01;;;;;;;81.75;46.50;;;;;;;;;;4987860;28;20050;-71
2022/03/26 02:46:28;;;;;;;78.03;46.97;;;;;;;;;;4989738;28;20096;-71
2022/03/26 02:48:55;;;;;;;85.38;48.80;;;;;;;;;;4988431;28;20583;-71
2022/03/26 02:51:23;;;;;;;84.40;49.33;;;;;;;;;;4987279;28;20949;-71
2022/03/26 02:53:50;;;;;;;88.68;47.15;;;;;;;;;;4990059;28;20054;-71
2022/03/26 02:56:19;;;;;;;83.07;46.35;;;;;;;;;;4988668;28;20132;-71
2022/03/26 02:58:46;;;;;;;78.43;45.78;;;;;;;;;;4987253;28;20137;-71
2022/03/26 03:01:14;;;;;;;73.47;42.20;;;;;;;;;;4984750;28;20062;-71
2022/03/26 03:03:41;;;;;;;74.20;43.22;;;;;;;;;;4987596;28;20065;-71
2022/03/26 03:06:08;;;;;;;78.50;44.20;;;;;;;;;;4987452;28;20531;-71
2022/03/26 03:08:35;;;;;;;85.35;46.95;;;;;;;;;;4987408;28;20053;-71
2022/03/26 03:11:03;;;;;;;94.07;51.45;;;;;;;;;;4987760;28;20478;-71
2022/03/26 03:13:31;;;;;;;123.15;60.42;;;;;;;;;;4985225;28;20054;-71
2022/03/26 03:15:59;;;;;;;130.40;65.30;;;;;;;;;;4991698;28;20058;-71
2022/03/26 03:18:26;;;;;;;135.13;66.93;;;;;;;;;;4988033;28;20058;-71
2022/03/26 03:20:53;;;;;;;130.50;67.82;;;;;;;;;;4986458;28;20054;-71
2022/03/26 03:23:20;;;;;;;124.15;64.00;;;;;;;;;;4987680;28;20457;-71
2022/03/26 03:25:47;;;;;;;121.22;63.80;;;;;;;;;;4988740;28;20050;-71
2022/03/26 03:28:15;;;;;;;124.00;63.90;;;;;;;;;;4984644;28;20046;-71
2022/03/26 03:30:43;;;;;;;125.60;63.28;;;;;;;;;;4988078;28;20452;-71
2022/03/26 03:33:10;;;;;;;121.55;61.47;;;;;;;;;;4988100;28;20046;-71
2022/03/26 03:35:38;;;;;;;136.32;66.43;;;;;;;;;;4985488;28;20058;-71
2022/03/26 03:38:05;;;;;;;142.32;70.82;;;;;;;;;;4986222;28;20505;-71
2022/03/26 03:40:32;;;;;;;144.57;70.13;;;;;;;;;;4983751;28;20093;-71
2022/03/26 03:42:59;;;;;;;146.43;71.75;;;;;;;;;;4987631;28;20054;-71
2022/03/26 03:45:26;;;;;;;148.77;74.15;;;;;;;;;;4983256;28;20062;-71
2022/03/26 03:47:55;;;;;;;157.38;75.80;;;;;;;;;;4980805;28;20050;-71
2022/03/26 03:50:23;;;;;;;153.70;76.07;;;;;;;;;;4986066;28;20465;-71
2022/03/26 03:52:51;;;;;;;152.00;76.43;;;;;;;;;;4993409;28;20046;-71
2022/03/26 03:55:18;;;;;;;150.25;73.72;;;;;;;;;;4987350;28;20065;-71
2022/03/26 03:57:45;;;;;;;148.25;75.10;;;;;;;;;;4981244;28;20062;-71
2022/03/26 04:00:13;;;;;;;139.27;71.20;;;;;;;;;;4992423;28;20057;-71
2022/03/26 04:02:41;;;;;;;131.60;68.65;;;;;;;;;;4983446;28;20042;-71
2022/03/26 04:05:10;;;;;;;136.20;69.85;;;;;;;;;;4986121;28;20057;-71
2022/03/26 04:07:38;;;;;;;143.35;72.30;;;;;;;;;;4987752;28;20084;-71
2022/03/26 04:10:07;;;;;;;134.38;69.53;;;;;;;;;;4980675;28;20069;-71
2022/03/26 04:12:34;;;;;;;147.55;72.38;;;;;;;;;;5001366;28;20409;-71
2022/03/26 04:15:01;;;;;;;144.55;71.90;;;;;;;;;;4984650;28;20445;-71
2022/03/26 04:17:28;;;;;;;148.43;74.18;;;;;;;;;;4985582;28;20058;-71
2022/03/26 04:19:56;;;;;;;153.85;74.93;;;;;;;;;;4986852;28;20394;-71
2022/03/26 04:22:24;;;;;;;144.77;72.72;;;;;;;;;;4985638;28;20046;-71
2022/03/26 04:24:51;;;;;;;131.55;69.78;;;;;;;;;;4988720;28;20057;-71
2022/03/26 04:27:19;;;;;;;144.13;70.82;;;;;;;;;;4989884;28;20164;-71
2022/03/26 04:29:46;;;;;;;152.80;72.75;;;;;;;;;;4985359;28;20440;-71
2022/03/26 04:32:13;;;;;;;142.95;71.70;;;;;;;;;;4987279;28;20862;-71
2022/03/26 04:34:40;;;;;;;149.38;73.53;;;;;;;;;;4982969;28;20046;-71
2022/03/26 04:37:07;;;;;;;149.15;73.20;;;;;;;;;;4980380;28;20108;-71
2022/03/26 04:39:36;;;;;;;139.18;72.28;;;;;;;;;;4988016;28;20050;-71
2022/03/26 04:42:04;;;;;;;137.82;70.30;;;;;;;;;;4987107;28;20050;-71
2022/03/26 04:44:32;;;;;;;130.38;69.15;;;;;;;;;;4985759;28;20438;-71
2022/03/26 04:46:59;;;;;;;136.50;68.40;;;;;;;;;;4987123;28;20488;-71
2022/03/26 04:49:26;;;;;;;136.00;69.10;;;;;;;;;;4986728;28;20057;-71
2022/03/26 04:51:53;;;;;;;139.07;68.35;;;;;;;;;;4978609;28;20050;-71
2022/03/26 04:54:21;;;;;;;140.38;70.50;;;;;;;;;;4979367;28;20124;-71
2022/03/26 04:56:49;;;;;;;132.48;66.50;;;;;;;;;;4987164;28;20714;-71
2022/03/26 04:59:16;;;;;;;148.30;72.18;;;;;;;;;;4980415;28;20058;-71
2022/03/26 05:01:44;;;;;;;147.48;72.88;;;;;;;;;;4979775;28;20062;-71
2022/03/26 05:04:11;;;;;;;140.38;68.43;;;;;;;;;;4998065;28;20051;-71
2022/03/26 05:06:39;;;;;;;142.65;70.88;;;;;;;;;;4981881;28;20189;-71
2022/03/26 05:09:06;;;;;;;159.45;74.90;;;;;;;;;;4986392;28;20404;-71
2022/03/26 05:11:33;;;;;;;136.82;69.20;;;;;;;;;;4986886;28;20555;-71
2022/03/26 05:14:01;;;;;;;134.55;68.05;;;;;;;;;;4987382;28;20636;-71
2022/03/26 05:16:29;;;;;;;130.63;64.30;;;;;;;;;;4986544;28;20112;-71
2022/03/26 05:18:56;;;;;;;128.50;66.60;;;;;;;;;;4978635;28;20072;-71
2022/03/26 05:21:23;;;;;;;148.73;68.88;;;;;;;;;;4987010;28;20058;-71
2022/03/26 05:23:51;;;;;;;153.55;72.90;;;;;;;;;;4985767;28;20054;-71
2022/03/26 05:26:22;;;;;;;129.05;63.88;;;;;;;;;;4985691;28;20071;-72
2022/03/26 05:28:50;;;;;;;132.63;66.53;;;;;;;;;;4986994;28;20059;-71
2022/03/26 05:31:18;;;;;;;142.82;69.55;;;;;;;;;;4985233;28;20050;-71
2022/03/26 05:33:46;;;;;;;147.65;71.35;;;;;;;;;;4987627;28;20050;-71
2022/03/26 05:36:13;;;;;;;144.75;71.93;;;;;;;;;;4986820;28;20121;-71
2022/03/26 05:38:40;;;;;;;133.98;66.75;;;;;;;;;;4991049;28;20054;-71
2022/03/26 05:41:07;;;;;;;138.40;68.32;;;;;;;;;;4982420;28;20054;-71
2022/03/26 05:43:34;;;;;;;160.18;74.80;;;;;;;;;;4982749;28;20051;-71
2022/03/26 05:46:02;;;;;;;144.45;70.93;;;;;;;;;;4980127;28;20436;-71
2022/03/26 05:48:30;;;;;;;148.43;70.85;;;;;;;;;;4982139;28;20061;-71
2022/03/26 05:50:58;;;;;;;136.70;66.50;;;;;;;;;;4987459;28;20129;-71
2022/03/26 05:53:25;;;;;;;157.05;73.28;;;;;;;;;;4987544;28;20053;-71
2022/03/26 05:55:53;;;;;;;147.02;66.82;;;;;;;;;;4987662;28;20077;-71
2022/03/26 05:58:20;;;;;;;155.65;72.20;;;;;;;;;;4988018;28;20137;-71
2022/03/26 06:00:49;;;;;;;142.43;66.25;;;;;;;;;;4986969;28;20060;-71
2022/03/26 06:03:17;;;;;;;141.00;67.35;;;;;;;;;;4982611;28;20051;-71
2022/03/26 06:05:45;;;;;;;171.10;75.90;;;;;;;;;;4983005;28;20097;-71
2022/03/26 06:08:13;;;;;;;134.38;64.95;;;;;;;;;;4985158;28;20133;-71
2022/03/26 06:10:40;;;;;;;139.88;68.70;;;;;;;;;;4987083;28;20069;-71
2022/03/26 06:13:07;;;;;;;131.57;66.28;;;;;;;;;;4982662;28;20454;-71
2022/03/26 06:15:35;;;;;;;143.85;69.25;;;;;;;;;;4981187;28;20061;-71
2022/03/26 06:18:02;;;;;;;128.88;63.83;;;;;;;;;;4978381;28;20169;-71
2022/03/26 06:20:29;;;;;;;129.38;64.30;;;;;;;;;;4977629;28;20058;-72
2022/03/26 06:22:58;;;;;;;132.98;64.80;;;;;;;;;;4979023;28;20050;-72
2022/03/26 06:25:25;;;;;;;123.13;63.17;;;;;;;;;;4977311;28;20069;-72
2022/03/26 06:27:52;;;;;;;115.03;59.22;;;;;;;;;;4980428;28;20058;-72
2022/03/26 06:30:19;;;;;;;114.03;58.67;;;;;;;;;;4977613;28;20468;-71
2022/03/26 06:32:47;;;;;;;119.72;59.65;;;;;;;;;;4977940;28;20054;-71
2022/03/26 06:35:14;;;;;;;120.82;61.28;;;;;;;;;;4975685;28;20058;-71
2022/03/26 06:37:41;;;;;;;117.18;57.42;;;;;;;;;;4977755;28;20490;-71
2022/03/26 06:40:10;;;;;;;115.28;60.08;;;;;;;;;;4984546;28;20074;-71
2022/03/26 06:42:38;;;;;;;116.97;58.95;;;;;;;;;;4983253;28;20046;-71
2022/03/26 06:45:05;;;;;;;101.30;53.42;;;;;;;;;;4986088;28;20057;-71
2022/03/26 06:47:32;;;;;;;106.22;55.92;;;;;;;;;;4985218;28;20061;-71
2022/03/26 06:50:00;;;;;;;101.10;52.08;;;;;;;;;;4985725;28;20058;-71
2022/03/26 06:52:27;;;;;;;92.00;48.78;;;;;;;;;;4982207;28;20060;-71
2022/03/26 06:54:54;;;;;;;89.60;50.28;;;;;;;;;;4979954;28;20444;-70
2022/03/26 06:57:23;;;;;;;91.03;48.30;;;;;;;;;;4979906;28;20417;-71
2022/03/26 06:59:50;;;;;;;91.70;49.65;;;;;;;;;;4982501;28;20058;-71
2022/03/26 07:02:17;;;;;;;85.63;48.53;;;;;;;;;;4988022;28;20385;-71
2022/03/26 07:04:44;;;;;;;94.20;51.60;;;;;;;;;;4983606;28;20054;-71
2022/03/26 07:07:13;;;;;;;105.30;55.83;;;;;;;;;;4981225;28;20058;-71
2022/03/26 07:09:41;;;;;;;99.90;53.50;;;;;;;;;;4985986;28;20132;-71
2022/03/26 07:12:09;;;;;;;129.48;60.40;;;;;;;;;;5001374;28;20444;-71
2022/03/26 07:14:37;;;;;;;133.25;66.70;;;;;;;;;;4984828;28;20049;-71
2022/03/26 07:17:05;;;;;;;146.27;75.35;;;;;;;;;;4985142;28;20774;-71
2022/03/26 07:19:32;;;;;;;178.20;84.82;;;;;;;;;;4984464;28;20058;-71
2022/03/26 07:21:59;;;;;;;181.68;84.55;;;;;;;;;;4985488;28;20087;-71
2022/03/26 07:24:26;;;;;;;181.18;82.13;;;;;;;;;;4985147;28;20073;-71
2022/03/26 07:26:53;;;;;;;175.90;85.28;;;;;;;;;;4980800;28;20129;-71
2022/03/26 07:29:21;;;;;;;178.98;86.93;;;;;;;;;;4982908;28;20320;-71
2022/03/26 07:31:49;;;;;;;172.20;84.70;;;;;;;;;;4982955;28;20505;-71
2022/03/26 07:34:17;;;;;;;159.07;80.93;;;;;;;;;;4986347;28;20050;-71
2022/03/26 07:36:44;;;;;;;158.93;78.80;;;;;;;;;;4980253;28;20046;-71
2022/03/26 07:39:12;;;;;;;160.68;78.22;;;;;;;;;;4986300;28;20109;-71
2022/03/26 07:41:40;;;;;;;158.60;78.90;;;;;;;;;;4980681;28;21582;-71
2022/03/26 07:44:07;;;;;;;165.90;83.55;;;;;;;;;;4980108;28;20065;-71
2022/03/26 07:46:34;;;;;;;148.38;76.75;;;;;;;;;;4979732;28;20113;-71
2022/03/26 07:49:03;;;;;;;146.63;74.40;;;;;;;;;;4979017;28;20408;-71
2022/03/26 07:51:30;;;;;;;155.70;76.63;;;;;;;;;;4974996;28;20054;-71
2022/03/26 07:53:57;;;;;;;148.02;73.80;;;;;;;;;;4986654;28;20475;-71
2022/03/26 07:56:24;;;;;;;146.55;73.38;;;;;;;;;;4988543;28;20547;-71
2022/03/26 07:58:52;;;;;;;129.30;68.13;;;;;;;;;;4986308;28;20555;-71
2022/03/26 08:01:19;;;;;;;134.93;73.32;;;;;;;;;;4977223;28;20405;-71
2022/03/26 08:03:46;;;;;;;126.15;64.57;;;;;;;;;;4984746;28;20099;-72
2022/03/26 08:06:15;;;;;;;115.50;60.38;;;;;;;;;;4980455;28;20069;-72
2022/03/26 08:08:42;;;;;;;125.38;63.30;;;;;;;;;;4996176;28;20138;-72
2022/03/26 08:11:09;;;;;;;114.25;62.88;;;;;;;;;;4985384;28;20061;-72
2022/03/26 08:13:36;;;;;;;106.47;57.90;;;;;;;;;;4981387;28;20046;-72
2022/03/26 08:16:03;;;;;;;116.65;60.42;;;;;;;;;;4980439;28;20054;-72
2022/03/26 08:18:31;;;;;;;101.03;56.08;;;;;;;;;;4982450;28;20063;-72
2022/03/26 08:20:58;;;;;;;96.80;53.08;;;;;;;;;;4981880;28;20051;-72
2022/03/26 08:23:26;;;;;;;98.97;53.28;;;;;;;;;;4983845;28;20122;-72
2022/03/26 08:28:38;;;;;;;92.93;49.15;;;;;;;;;;4983383;28;20106;-72
2022/03/26 08:31:06;;;;;;;97.03;51.17;;;;;;;;;;4986365;28;20054;-72
2022/03/26 08:33:33;;;;;;;88.45;48.10;;;;;;;;;;4985447;28;20046;-72
2022/03/26 08:36:00;;;;;;;82.43;47.42;;;;;;;;;;4983874;28;20441;-72
2022/03/26 08:38:29;;;;;;;72.40;42.13;;;;;;;;;;4984371;28;20096;-72
2022/03/26 08:40:56;;;;;;;66.90;38.83;;;;;;;;;;4982552;28;20086;-72
2022/03/26 08:43:24;;;;;;;60.42;35.00;;;;;;;;;;4983226;28;20053;-72
2022/03/26 08:45:51;;;;;;;69.13;38.83;;;;;;;;;;4980588;28;20508;-72
2022/03/26 08:48:18;;;;;;;64.22;40.00;;;;;;;;;;4985945;28;20059;-72
2022/03/26 08:50:45;;;;;;;68.10;40.33;;;;;;;;;;4988910;28;20054;-72
2022/03/26 08:53:13;;;;;;;65.75;40.80;;;;;;;;;;4986849;28;20058;-72
2022/03/26 08:55:41;;;;;;;68.90;43.13;;;;;;;;;;4987043;28;20144;-72
2022/03/26 08:58:09;;;;;;;72.75;43.47;;;;;;;;;;4985682;28;20132;-72
2022/03/26 09:00:36;;;;;;;72.88;44.65;;;;;;;;;;4987254;28;20054;-72
2022/03/26 09:03:04;;;;;;;74.75;46.15;;;;;;;;;;4985708;28;20066;-73
2022/03/26 09:05:31;;;;;;;70.68;44.20;;;;;;;;;;4986182;28;20062;-73
2022/03/26 09:07:59;;;;;;;71.72;45.38;;;;;;;;;;4990999;28;20524;-72
2022/03/26 09:10:26;;;;;;;76.43;46.17;;;;;;;;;;4989488;28;20504;-73
2022/03/26 09:12:56;;;;;;;74.55;48.47;;;;;;;;;;4984655;28;20046;-72
2022/03/26 09:15:23;;;;;;;63.55;40.40;;;;;;;;;;4990960;28;20050;-72
2022/03/26 09:17:50;;;;;;;52.45;34.15;;;;;;;;;;4988019;28;20540;-72
2022/03/26 09:20:17;;;;;;;50.58;29.88;;;;;;;;;;4990077;28;20057;-72
2022/03/26 09:22:45;;;;;;;45.42;28.38;;;;;;;;;;4990818;28;20069;-72
2022/03/26 09:25:12;;;;;;;35.60;24.25;;;;;;;;;;4988873;28;20054;-71
2022/03/26 09:27:39;;;;;;;40.22;26.25;;;;;;;;;;4986112;28;20501;-72
2022/03/26 09:30:09;;;;;;;40.88;25.42;;;;;;;;;;4990340;28;20120;-72
2022/03/26 09:32:36;;;;;;;40.25;25.20;;;;;;;;;;4983716;28;20109;-72
2022/03/26 09:35:03;;;;;;;37.60;24.38;;;;;;;;;;4983049;28;20508;-72
2022/03/26 09:37:30;;;;;;;32.28;22.20;;;;;;;;;;4990217;28;20094;-73
2022/03/26 09:39:58;;;;;;;37.65;22.63;;;;;;;;;;4985910;28;20061;-72
2022/03/26 09:42:25;;;;;;;28.73;20.35;;;;;;;;;;4989360;28;20050;-72
2022/03/26 09:44:52;;;;;;;27.63;17.52;;;;;;;;;;4984438;28;20129;-72
2022/03/26 09:47:22;;;;;;;30.40;18.90;;;;;;;;;;4988124;28;20054;-72
2022/03/26 09:49:49;;;;;;;32.00;20.08;;;;;;;;;;4983463;28;20164;-72
2022/03/26 09:52:17;;;;;;;24.02;15.95;;;;;;;;;;4999107;28;20058;-72
2022/03/26 09:54:44;;;;;;;26.88;14.20;;;;;;;;;;4984118;28;20484;-72
2022/03/26 09:57:11;;;;;;;31.58;18.50;;;;;;;;;;4980094;28;20054;-72
2022/03/26 09:59:39;;;;;;;25.00;15.75;;;;;;;;;;4983621;28;20054;-72
2022/03/26 10:02:06;;;;;;;24.67;15.80;;;;;;;;;;4980400;28;20046;-72
2022/03/26 10:04:42;;;;;;;28.63;16.38;;;;;;;;;;4980144;28;20101;-72
2022/03/26 10:07:10;;;;;;;23.40;13.68;;;;;;;;;;4979633;28;20050;-71
2022/03/26 10:09:37;;;;;;;21.52;13.65;;;;;;;;;;4988157;28;20101;-71
2022/03/26 10:12:06;;;;;;;27.05;16.70;;;;;;;;;;4988177;28;20120;-71
2022/03/26 10:14:41;;;;;;;23.13;15.30;;;;;;;;;;4984223;28;20049;-71
2022/03/26 10:17:15;;;;;;;23.95;15.65;;;;;;;;;;4998313;28;20113;-71
2022/03/26 10:19:45;;;;;;;20.38;10.90;;;;;;;;;;4984572;28;20056;-71
2022/03/26 10:22:31;;;;;;;17.30;10.63;;;;;;;;;;4980617;28;20066;-71
2022/03/26 10:24:59;;;;;;;13.73;10.25;;;;;;;;;;4983483;28;20058;-71
2022/03/26 10:27:27;;;;;;;18.58;9.95;;;;;;;;;;4982183;28;20735;-71
2022/03/26 10:29:55;;;;;;;16.17;10.27;;;;;;;;;;4979656;28;20058;-71
2022/03/26 10:32:41;;;;;;;14.30;8.48;;;;;;;;;;4978470;28;21252;-71
2022/03/26 10:35:11;;;;;;;15.63;8.75;;;;;;;;;;4981447;28;20054;-71
2022/03/26 10:37:45;;;;;;;13.45;8.25;;;;;;;;;;4984833;28;20652;-71
2022/03/26 10:40:21;;;;;;;15.35;8.45;;;;;;;;;;4989110;28;20102;-71
2022/03/26 10:42:58;;;;;;;14.55;8.70;;;;;;;;;;4989004;28;20125;-71
2022/03/26 10:45:25;;;;;;;13.05;8.20;;;;;;;;;;4987616;28;20101;-71
2022/03/26 10:47:54;;;;;;;14.85;8.52;;;;;;;;;;4989436;28;20047;-71
2022/03/26 10:50:23;;;;;;;13.32;8.40;;;;;;;;;;4987417;28;20058;-71
2022/03/26 10:52:50;;;;;;;12.18;8.63;;;;;;;;;;4992533;28;20468;-71
2022/03/26 10:55:18;;;;;;;12.82;7.25;;;;;;;;;;4992065;28;20049;-71
2022/03/26 10:57:46;;;;;;;15.98;7.90;;;;;;;;;;4986177;28;20053;-71
2022/03/26 11:00:14;;;;;;;12.80;8.68;;;;;;;;;;4983909;28;20069;-71
2022/03/26 11:02:42;;;;;;;10.20;6.60;;;;;;;;;;4986674;28;20066;-71
2022/03/26 11:05:09;;;;;;;13.52;7.20;;;;;;;;;;4989193;28;20556;-71
2022/03/26 11:07:39;;;;;;;15.25;6.95;;;;;;;;;;4988262;28;20058;-71
2022/03/26 11:10:07;;;;;;;12.23;6.40;;;;;;;;;;4987509;28;20050;-71
2022/03/26 11:12:35;;;;;;;7.88;4.78;;;;;;;;;;4989531;28;20050;-71
2022/03/26 11:15:04;;;;;;;10.63;5.40;;;;;;;;;;4989505;28;20553;-71
2022/03/26 11:17:37;;;;;;;13.77;5.93;;;;;;;;;;4984678;28;20068;-71
2022/03/26 11:20:14;;;;;;;10.52;5.32;;;;;;;;;;4987228;28;20128;-72
2022/03/26 11:22:52;;;;;;;10.30;5.82;;;;;;;;;;4985564;28;20914;-72
2022/03/26 11:25:34;;;;;;;10.77;6.03;;;;;;;;;;4990782;28;20042;-72
2022/03/26 11:28:08;;;;;;;11.10;6.32;;;;;;;;;;4988605;28;20058;-71
2022/03/26 11:30:43;;;;;;;9.82;6.03;;;;;;;;;;4991927;28;20144;-71
2022/03/26 11:33:11;;;;;;;11.00;6.13;;;;;;;;;;4985917;28;20589;-71
2022/03/26 11:35:50;;;;;;;9.38;5.53;;;;;;;;;;4987211;28;20048;-71
2022/03/26 11:38:19;;;;;;;8.10;5.18;;;;;;;;;;4984501;28;20086;-72
2022/03/26 11:40:48;;;;;;;9.48;5.15;;;;;;;;;;4995008;28;20137;-72
2022/03/26 11:43:17;;;;;;;9.00;4.63;;;;;;;;;;4986341;28;20132;-72
2022/03/26 11:51:25;;;;;;;6.90;3.80;;;;;;;;;;4986863;28;20062;-71
2022/03/26 11:53:59;;;;;;;5.47;3.05;;;;;;;;;;4987753;28;20058;-71
2022/03/26 11:56:27;;;;;;;6.15;3.50;;;;;;;;;;4989960;28;20140;-71
2022/03/26 11:59:06;;;;;;;5.97;3.10;;;;;;;;;;4986084;28;20043;-72
2022/03/26 12:01:37;;;;;;;4.70;2.90;;;;;;;;;;4992079;28;20465;-72
2022/03/26 12:04:10;;;;;;;5.32;3.08;;;;;;;;;;4986765;28;20057;-72
2022/03/26 12:06:42;;;;;;;5.30;3.20;;;;;;;;;;4983057;28;20133;-72
2022/03/26 12:09:12;;;;;;;6.63;3.00;;;;;;;;;;4980616;28;20093;-72
2022/03/26 12:11:39;;;;;;;5.13;2.85;;;;;;;;;;4977648;28;20067;-72
2022/03/26 12:14:07;;;;;;;5.47;2.50;;;;;;;;;;4985307;28;20058;-72
2022/03/26 12:16:53;;;;;;;5.47;2.75;;;;;;;;;;4982191;28;20100;-72
2022/03/26 12:19:42;;;;;;;5.72;3.53;;;;;;;;;;4980984;28;20054;-72
2022/03/26 12:22:18;;;;;;;6.38;4.00;;;;;;;;;;4977153;28;20511;-72
2022/03/26 12:24:47;;;;;;;7.38;3.90;;;;;;;;;;4984326;28;20396;-72
2022/03/26 12:27:14;;;;;;;6.18;3.92;;;;;;;;;;4989898;28;20133;-72
2022/03/26 12:29:42;;;;;;;5.38;3.53;;;;;;;;;;4982855;28;20066;-72
2022/03/26 12:32:09;;;;;;;8.93;4.32;;;;;;;;;;4978976;28;20120;-72
2022/03/26 12:34:52;;;;;;;7.80;4.40;;;;;;;;;;4983220;28;20544;-72
2022/03/26 12:37:19;;;;;;;4.90;3.10;;;;;;;;;;4985711;28;20692;-73
2022/03/26 12:39:47;;;;;;;5.25;3.97;;;;;;;;;;4985966;28;20050;-72
2022/03/26 12:42:14;;;;;;;6.20;4.15;;;;;;;;;;4982921;28;20066;-72
2022/03/26 12:44:42;;;;;;;6.95;4.20;;;;;;;;;;4988065;28;20547;-72
2022/03/26 12:47:09;;;;;;;6.63;4.00;;;;;;;;;;4992227;28;20134;-72
2022/03/26 12:49:37;;;;;;;5.75;3.55;;;;;;;;;;4987965;28;20727;-72
2022/03/26 12:52:04;;;;;;;8.50;3.90;;;;;;;;;;4991113;28;20141;-72
2022/03/26 12:54:32;;;;;;;7.15;4.57;;;;;;;;;;4983147;28;20050;-72
2022/03/26 12:57:02;;;;;;;9.75;5.60;;;;;;;;;;4986058;28;20050;-72
2022/03/26 12:59:29;;;;;;;8.63;4.97;;;;;;;;;;4991766;28;20046;-72
2022/03/26 13:02:00;;;;;;;7.45;4.20;;;;;;;;;;4985448;28;20046;-72
2022/03/26 13:04:27;;;;;;;9.13;5.10;;;;;;;;;;4988237;28;20062;-72
2022/03/26 13:06:55;;;;;;;6.90;4.22;;;;;;;;;;4989248;28;20058;-72
2022/03/26 13:09:22;;;;;;;7.80;4.38;;;;;;;;;;4992726;28;20062;-72
2022/03/26 13:11:52;;;;;;;8.18;3.92;;;;;;;;;;4989484;28;20540;-72
2022/03/26 13:14:20;;;;;;;6.63;3.58;;;;;;;;;;4991153;28;20133;-72
2022/03/26 13:16:51;;;;;;;10.77;4.22;;;;;;;;;;4991705;28;20053;-72
2022/03/26 13:19:18;;;;;;;6.65;3.75;;;;;;;;;;4986249;28;20054;-72
2022/03/26 13:21:46;;;;;;;6.53;3.92;;;;;;;;;;4988405;28;20104;-72
2022/03/26 13:24:15;;;;;;;5.75;4.20;;;;;;;;;;4989672;28;20062;-72
2022/03/26 13:26:43;;;;;;;7.82;4.35;;;;;;;;;;4990277;28;20876;-72
2022/03/26 13:29:11;;;;;;;6.72;3.80;;;;;;;;;;4991041;28;20093;-72
2022/03/26 13:31:42;;;;;;;5.85;3.83;;;;;;;;;;4990740;28;20152;-72
2022/03/26 13:34:13;;;;;;;6.40;3.60;;;;;;;;;;4986797;28;20150;-72
2022/03/26 13:36:40;;;;;;;5.50;4.07;;;;;;;;;;4990390;28;20054;-72
2022/03/26 13:39:18;;;;;;;8.38;4.45;;;;;;;;;;4988907;28;20099;-72
2022/03/26 13:41:45;;;;;;;6.18;3.50;;;;;;;;;;4990469;28;20129;-72
2022/03/26 13:44:12;;;;;;;7.82;4.30;;;;;;;;;;4990860;28;20058;-72
2022/03/26 13:46:41;;;;;;;7.28;4.10;;;;;;;;;;4989405;28;20055;-72
2022/03/26 13:49:09;;;;;;;5.53;3.53;;;;;;;;;;4991014;28;20054;-72
2022/03/26 13:51:37;;;;;;;5.40;3.05;;;;;;;;;;4990122;28;20137;-72
2022/03/26 13:54:05;;;;;;;5.25;3.08;;;;;;;;;;4990347;28;20046;-72
2022/03/26 13:56:35;;;;;;;7.03;3.22;;;;;;;;;;4989795;28;20777;-72
2022/03/26 13:59:04;;;;;;;5.55;3.10;;;;;;;;;;4991969;28;20137;-72
2022/03/26 14:01:36;;;;;;;6.68;3.17;;;;;;;;;;4989879;28;20061;-72
2022/03/26 14:04:04;;;;;;;5.53;2.97;;;;;;;;;;4986979;28;20050;-72
2022/03/26 14:06:32;;;;;;;4.32;2.50;;;;;;;;;;4985523;28;20065;-72
2022/03/26 14:09:02;;;;;;;6.10;2.70;;;;;;;;;;4988838;28;20050;-72
2022/03/26 14:11:30;;;;;;;5.15;2.83;;;;;;;;;;4986864;28;20112;-72
2022/03/26 14:13:57;;;;;;;6.00;2.42;;;;;;;;;;4991190;28;20054;-72
2022/03/26 14:16:24;;;;;;;4.22;2.50;;;;;;;;;;4989942;28;20129;-72
2022/03/26 14:18:51;;;;;;;5.13;2.72;;;;;;;;;;4997064;28;20058;-72
2022/03/26 14:21:20;;;;;;;5.35;2.53;;;;;;;;;;4993616;28;20061;-72
2022/03/26 14:23:47;;;;;;;5.53;2.78;;;;;;;;;;4989545;28;20054;-72
2022/03/26 14:26:14;;;;;;;5.78;2.22;;;;;;;;;;4989296;28;20104;-72
2022/03/26 14:28:41;;;;;;;4.28;2.40;;;;;;;;;;4990111;28;20050;-72
2022/03/26 14:31:09;;;;;;;5.20;2.60;;;;;;;;;;4989483;28;20417;-72
2022/03/26 14:33:37;;;;;;;5.00;2.90;;;;;;;;;;4988955;28;20062;-72